Airfield :
LOGIN :

Register | Disclaimer

   EN    FR    IT 

 










Legend :    VFR   Marginal VFR   IFR   Intensive IFR   Very Intensive IFR
Visi :
Ceiling :
>= 8 km
>= 3000ft
5 to 8 km
1000 to 3000 ft
1500m to 5 km
500 to 1000 ft
800 to 1500m
200 to 500 ft
< 800m
< 200 ft
Symbols :   Thunderstorms  Fog  Heavy snow  Heavy precipitations  Wind > 20 kt
SIGMETs :     Misc.  Thunderstorms  Icing  Turbulence  Mountain Waves  Volcanic Ashes







- Airport Elevation : 204 ft
- IATA code : AGF
- Download approach charts


LFBA - Agen

CURRENT METAR :
  • 210930Z AUTO 11004KT 010V170 CAVOK 25/11 Q1021 NOSIG

EXPIRED METARs :
  • 210900Z AUTO 08004KT 040V110 CAVOK 23/11 Q1021 NOSIG
  • 210830Z AUTO 13004KT 080V180 CAVOK 21/11 Q1022 NOSIG
  • 210800Z AUTO 11005KT 080V140 CAVOK 20/10 Q1022 NOSIG
  • 210730Z AUTO 10004KT CAVOK 18/10 Q1022 NOSIG
  • 210700Z AUTO 10003KT CAVOK 16/10 Q1022 NOSIG

TAF TAF LFBA
Valid from the 21 at 09:00 until the 21 at 18:00 UTC


210800Z 2109/2118 10005KT CAVOK
No reported NOTAMs for that airfield.



MET'MAP, your aeronautical weather chart ! - Copyright ORBIFLY December 2007 - Disclaimer

ORBIFLY MET'MAP TEAM :

Programming & Development : Alexandra Zaïnal
Concept & Development : Baudouin d'Aumeries
Co-Development & Prog : Marc-Olivier Méhu
Technical & hardware support : Manuel Goepfert

Contact : metmap@orbifly.com




SOURCES & CREDITS :

   NOAA